Terminal Aerodrome Forecast
Issued by NWS

Home | Current Version | Previous Version | Text Only | Print | Product List | Glossary On
Versions: 1 2 3 4 5 6 7 8 9 10 11 12 13 14
114
FTUS46 KSEW 210524
TAFCLM
TAF
KCLM 210524Z 2106/2206 11004KT P6SM BKN050
     FM212000 07003KT P6SM SCT015 OVC025
     FM212300 07003KT 5SM -SN BR OVC015
     FM220400 VRB03KT P6SM SCT025 OVC050=

USA.gov is the U.S. government's official web portal to all federal, state and local government web resources and services.